createdAt,value
2022-08-26T00:01:57.664Z,16.10
2022-08-26T00:04:26.262Z,16.70
2022-08-26T00:06:55.713Z,15.70
2022-08-26T00:09:24.816Z,18.00
2022-08-26T00:11:53.915Z,16.50
2022-08-26T00:14:27.097Z,16.40
2022-08-26T00:16:57.947Z,15.60
2022-08-26T00:19:26.043Z,17.40
2022-08-26T00:21:54.012Z,18.20
2022-08-26T00:24:24.179Z,15.90
2022-08-26T00:26:53.210Z,20.50
2022-08-26T00:29:21.428Z,15.00
2022-08-26T00:31:50.600Z,16.80
2022-08-26T00:34:19.567Z,16.80
2022-08-26T00:36:47.791Z,15.90
2022-08-26T00:39:19.821Z,15.70
2022-08-26T00:41:49.785Z,17.70
2022-08-26T00:44:18.825Z,22.60
2022-08-26T00:46:50.886Z,16.50
2022-08-26T00:49:25.173Z,16.20
2022-08-26T00:51:56.549Z,17.30
2022-08-26T00:54:27.327Z,15.60
2022-08-26T00:56:58.134Z,18.50
2022-08-26T00:59:32.756Z,16.20
2022-08-26T01:02:02.678Z,15.40
2022-08-26T01:04:34.358Z,17.90
2022-08-26T01:09:29.206Z,16.60
2022-08-26T01:12:01.241Z,17.10
2022-08-26T01:14:32.590Z,16.00
2022-08-26T01:17:01.992Z,16.70
2022-08-26T01:19:40.646Z,18.10
2022-08-26T01:22:13.296Z,17.30
2022-08-26T01:24:42.629Z,18.70
2022-08-26T01:27:15.049Z,17.60
2022-08-26T01:29:44.527Z,16.70
2022-08-26T01:32:17.779Z,16.80
2022-08-26T01:34:47.568Z,16.30
2022-08-26T01:37:18.101Z,16.40
2022-08-26T01:39:48.708Z,18.70
2022-08-26T01:42:18.552Z,19.00
2022-08-26T01:44:50.816Z,17.40
2022-08-26T01:47:23.525Z,17.60
2022-08-26T01:49:54.781Z,14.30
2022-08-26T01:52:28.010Z,15.70
2022-08-26T01:54:58.518Z,17.10
2022-08-26T01:57:27.499Z,19.10
2022-08-26T01:59:59.714Z,17.00
2022-08-26T02:02:28.737Z,18.30
2022-08-26T02:05:00.152Z,18.10
2022-08-26T02:07:29.140Z,15.90
2022-08-26T02:09:56.879Z,18.00
2022-08-26T02:12:26.774Z,16.80
2022-08-26T02:14:59.605Z,19.00
2022-08-26T02:17:37.017Z,17.00
2022-08-26T02:20:13.057Z,16.90
2022-08-26T02:22:45.045Z,17.00
2022-08-26T02:25:20.276Z,19.50
2022-08-26T02:27:48.492Z,20.00
2022-08-26T02:30:20.505Z,18.90
2022-08-26T02:32:49.546Z,18.50
2022-08-26T02:35:20.297Z,16.80
2022-08-26T02:37:49.458Z,20.40
2022-08-26T02:40:21.838Z,20.60
2022-08-26T02:42:49.871Z,17.60
2022-08-26T02:47:52.728Z,21.20
2022-08-26T02:50:21.514Z,17.90
2022-08-26T02:52:50.289Z,21.50
2022-08-26T02:55:18.407Z,17.80
2022-08-26T02:57:46.342Z,21.50
2022-08-26T03:00:16.472Z,18.40
2022-08-26T03:02:44.362Z,18.40
2022-08-26T03:05:12.705Z,19.40
2022-08-26T03:07:40.503Z,21.60
2022-08-26T03:10:11.889Z,19.70
2022-08-26T03:12:40.217Z,17.10
2022-08-26T03:15:17.437Z,20.20
2022-08-26T03:17:47.680Z,20.90
2022-08-26T03:20:17.470Z,16.30
2022-08-26T03:22:45.973Z,20.10
2022-08-26T03:25:15.784Z,17.40
2022-08-26T03:27:44.265Z,20.50
2022-08-26T03:30:32.586Z,22.30
2022-08-26T03:33:01.613Z,23.60
2022-08-26T03:35:31.435Z,22.90
2022-08-26T03:37:59.753Z,21.10
2022-08-26T03:40:33.123Z,18.90
2022-08-26T03:43:01.269Z,21.80
2022-08-26T03:45:29.881Z,24.50
2022-08-26T03:47:57.881Z,23.00
2022-08-26T03:50:26.780Z,21.70
2022-08-26T03:52:55.692Z,20.10
2022-08-26T03:55:25.424Z,23.80
2022-08-26T03:57:55.156Z,22.10
2022-08-26T04:00:23.923Z,19.80
2022-08-26T04:02:53.425Z,22.50
2022-08-26T04:05:22.836Z,22.60
2022-08-26T04:07:50.985Z,20.60
2022-08-26T04:10:22.510Z,23.30
2022-08-26T04:12:58.655Z,24.50
2022-08-26T04:15:28.049Z,19.90
2022-08-26T04:17:57.243Z,23.10
2022-08-26T04:20:26.095Z,21.70
2022-08-26T04:22:53.872Z,29.00
2022-08-26T04:25:21.854Z,21.80
2022-08-26T04:27:49.652Z,27.00
2022-08-26T04:30:19.300Z,23.40
2022-08-26T04:32:48.083Z,31.00
2022-08-26T04:35:15.897Z,26.00
2022-08-26T04:37:44.726Z,27.80
2022-08-26T04:40:13.195Z,25.60
2022-08-26T04:42:41.117Z,29.60
2022-08-26T04:45:10.833Z,26.10
2022-08-26T04:47:39.680Z,23.60
2022-08-26T04:50:09.352Z,26.20
2022-08-26T04:52:38.745Z,23.50
2022-08-26T04:55:08.624Z,26.00
2022-08-26T04:57:36.589Z,23.40
2022-08-26T05:00:08.055Z,27.00
2022-08-26T05:02:36.626Z,26.30
2022-08-26T05:05:06.460Z,24.00
2022-08-26T05:07:34.852Z,26.00
2022-08-26T05:10:04.434Z,27.40
2022-08-26T05:12:36.589Z,33.70
2022-08-26T05:15:09.494Z,27.80
2022-08-26T05:17:37.315Z,29.40
2022-08-26T05:20:08.318Z,26.30
2022-08-26T05:22:36.057Z,29.20
2022-08-26T05:25:04.596Z,27.70
2022-08-26T05:27:32.234Z,23.90
2022-08-26T05:30:01.113Z,31.90
2022-08-26T05:32:28.897Z,28.90
2022-08-26T05:34:57.260Z,30.20
2022-08-26T05:37:26.305Z,31.30
2022-08-26T05:39:54.143Z,33.00
2022-08-26T05:42:21.926Z,32.70
2022-08-26T05:44:53.829Z,33.70
2022-08-26T05:47:23.506Z,30.40
2022-08-26T05:49:51.822Z,38.30
2022-08-26T05:52:19.800Z,43.40
2022-08-26T05:54:47.742Z,36.20
2022-08-26T05:57:16.137Z,32.70
2022-08-26T05:59:46.400Z,33.70
2022-08-26T06:02:14.575Z,33.20
2022-08-26T06:04:42.777Z,36.40
2022-08-26T06:07:11.936Z,44.50
2022-08-26T06:09:41.267Z,36.90
2022-08-26T06:12:08.998Z,33.10
2022-08-26T06:14:36.801Z,38.10
2022-08-26T06:17:04.668Z,30.80
2022-08-26T06:19:33.117Z,33.90
2022-08-26T06:22:23.594Z,32.00
2022-08-26T06:25:10.130Z,36.10
2022-08-26T06:27:38.133Z,52.20
2022-08-26T06:30:09.739Z,47.30
2022-08-26T06:32:37.454Z,41.40
2022-08-26T06:35:07.355Z,37.90
2022-08-26T06:37:40.186Z,46.20
2022-08-26T06:40:11.530Z,45.20
2022-08-26T06:42:39.476Z,51.00
2022-08-26T06:45:09.164Z,53.90
2022-08-26T06:47:37.398Z,50.40
2022-08-26T06:50:06.438Z,45.30
2022-08-26T06:52:34.142Z,48.60
2022-08-26T06:55:02.584Z,53.00
2022-08-26T06:57:32.127Z,47.20
2022-08-26T07:00:00.508Z,52.80
2022-08-26T07:02:28.468Z,52.70
2022-08-26T07:04:56.859Z,48.50
2022-08-26T07:07:24.734Z,53.20
2022-08-26T07:09:52.782Z,54.00
2022-08-26T07:12:20.634Z,61.70
2022-08-26T07:14:48.897Z,55.00
2022-08-26T07:17:16.806Z,49.40
2022-08-26T07:19:44.716Z,53.60
2022-08-26T07:22:13.701Z,49.50
2022-08-26T07:24:42.331Z,55.50
2022-08-26T07:27:13.414Z,50.90
2022-08-26T07:29:42.724Z,46.50
2022-08-26T07:32:12.803Z,47.70
2022-08-26T07:34:41.832Z,57.80
2022-08-26T07:37:10.247Z,41.00
2022-08-26T07:39:38.591Z,44.80
2022-08-26T07:42:10.303Z,46.20
2022-08-26T07:44:39.237Z,47.40
2022-08-26T07:47:19.407Z,45.20
2022-08-26T07:49:55.044Z,44.30
2022-08-26T07:52:26.691Z,44.60
2022-08-26T07:54:57.286Z,46.40
2022-08-26T07:57:25.705Z,41.50
2022-08-26T07:59:55.019Z,45.70
2022-08-26T08:02:24.565Z,60.10
2022-08-26T08:04:53.987Z,45.60
2022-08-26T08:07:38.556Z,41.70
2022-08-26T08:10:13.188Z,44.40
2022-08-26T08:12:41.972Z,50.40
2022-08-26T08:15:13.176Z,50.20
2022-08-26T08:17:42.667Z,44.40
2022-08-26T08:20:14.043Z,54.20
2022-08-26T08:22:43.008Z,45.20
2022-08-26T08:25:12.231Z,54.10
2022-08-26T08:27:42.456Z,41.00
2022-08-26T08:30:13.817Z,44.50
2022-08-26T08:32:43.173Z,40.30
2022-08-26T08:35:13.717Z,49.10
2022-08-26T08:37:42.994Z,42.30
2022-08-26T08:40:16.731Z,48.40
2022-08-26T08:42:47.577Z,42.70
2022-08-26T08:45:21.902Z,43.00
2022-08-26T08:47:54.861Z,45.10
2022-08-26T08:50:28.773Z,40.10
2022-08-26T08:53:11.518Z,38.20
2022-08-26T08:55:55.878Z,45.70
2022-08-26T08:58:31.601Z,45.40
2022-08-26T09:01:06.022Z,37.60
2022-08-26T09:03:44.903Z,41.30
2022-08-26T09:06:18.177Z,34.80
2022-08-26T09:08:50.686Z,40.50
2022-08-26T09:11:20.053Z,37.20
2022-08-26T09:13:52.759Z,45.70
2022-08-26T09:16:24.736Z,39.60
2022-08-26T09:19:14.869Z,36.30
2022-08-26T09:21:54.217Z,35.90
2022-08-26T09:24:28.398Z,34.50
2022-08-26T09:26:58.406Z,34.90
2022-08-26T09:29:28.506Z,35.10
2022-08-26T09:32:15.585Z,35.20
2022-08-26T09:34:56.977Z,34.80
2022-08-26T09:37:43.292Z,37.70
2022-08-26T09:40:27.031Z,41.70
2022-08-26T09:43:13.376Z,35.00
2022-08-26T09:45:50.746Z,38.50
2022-08-26T09:48:30.640Z,43.00
2022-08-26T09:51:01.378Z,34.50
2022-08-26T09:53:32.414Z,37.80
2022-08-26T09:56:16.879Z,33.60
2022-08-26T09:58:47.259Z,29.40
2022-08-26T10:01:34.194Z,31.00
2022-08-26T10:04:09.129Z,29.10
2022-08-26T10:06:40.928Z,28.40
2022-08-26T10:09:13.393Z,28.10
2022-08-26T10:11:45.547Z,35.10
2022-08-26T10:14:20.669Z,26.60
2022-08-26T10:16:54.091Z,28.50
2022-08-26T10:19:40.217Z,22.40
2022-08-26T10:22:21.960Z,25.80
2022-08-26T10:24:55.261Z,28.50
2022-08-26T10:27:32.421Z,26.30
2022-08-26T10:30:06.420Z,26.60
2022-08-26T10:32:41.258Z,25.10
2022-08-26T10:35:12.469Z,29.20
2022-08-26T10:37:45.834Z,23.70
2022-08-26T10:40:19.548Z,21.50
2022-08-26T10:42:54.588Z,20.00
2022-08-26T10:45:25.996Z,21.20
2022-08-26T10:48:00.241Z,22.50
2022-08-26T10:50:32.886Z,25.40
2022-08-26T10:53:07.644Z,22.20
2022-08-26T10:55:47.627Z,20.90
2022-08-26T10:58:30.195Z,20.70
2022-08-26T11:01:23.342Z,22.60
2022-08-26T11:04:01.418Z,20.10
2022-08-26T11:06:30.985Z,17.70
2022-08-26T11:09:01.042Z,19.60
2022-08-26T11:11:47.609Z,21.60
2022-08-26T11:14:45.966Z,17.40
2022-08-26T11:17:54.665Z,19.10
2022-08-26T11:20:34.163Z,20.30
2022-08-26T11:23:34.224Z,20.70
2022-08-26T11:26:18.937Z,17.40
2022-08-26T11:29:13.449Z,20.50
2022-08-26T11:31:56.255Z,21.50
2022-08-26T11:34:56.226Z,22.00
2022-08-26T11:37:32.327Z,19.40
2022-08-26T11:40:04.211Z,19.20
2022-08-26T11:42:40.189Z,20.10
2022-08-26T11:45:19.203Z,20.30
2022-08-26T11:47:47.496Z,19.70
2022-08-26T11:50:20.729Z,20.10
2022-08-26T11:52:53.218Z,19.30
2022-08-26T11:55:23.239Z,20.70
2022-08-26T11:57:55.398Z,19.20
2022-08-26T12:00:27.186Z,20.50
2022-08-26T12:02:55.689Z,21.20
2022-08-26T12:05:31.191Z,19.60
2022-08-26T12:08:06.269Z,17.40
2022-08-26T12:10:34.804Z,20.40
2022-08-26T12:13:05.499Z,21.30
2022-08-26T12:15:34.826Z,20.10
2022-08-26T12:20:53.139Z,20.20
2022-08-26T12:23:34.973Z,20.00
2022-08-26T12:26:07.924Z,23.60
2022-08-26T12:28:44.085Z,20.10
2022-08-26T12:31:19.118Z,22.70
2022-08-26T12:33:48.843Z,18.90
2022-08-26T12:36:22.367Z,20.70
2022-08-26T12:38:50.213Z,22.30
2022-08-26T12:41:39.049Z,18.90
2022-08-26T12:44:07.219Z,21.70
2022-08-26T12:46:35.445Z,18.60
2022-08-26T12:49:03.599Z,24.20
2022-08-26T12:51:34.052Z,19.20
2022-08-26T12:54:06.134Z,19.60
2022-08-26T12:56:38.312Z,19.50
2022-08-26T12:59:18.878Z,20.60
2022-08-26T13:01:48.698Z,19.50
2022-08-26T13:07:29.834Z,20.20
2022-08-26T13:09:58.802Z,19.10
2022-08-26T13:12:29.892Z,18.80
2022-08-26T13:14:58.904Z,19.90
2022-08-26T13:17:28.160Z,19.50
2022-08-26T13:20:02.696Z,17.50
2022-08-26T13:22:31.876Z,18.50
2022-08-26T13:24:59.924Z,17.20
2022-08-26T13:27:28.363Z,16.00
2022-08-26T13:29:56.882Z,19.60
2022-08-26T13:32:27.772Z,19.30
2022-08-26T13:34:57.154Z,16.80
2022-08-26T13:37:34.751Z,17.50
2022-08-26T13:40:05.613Z,16.70
2022-08-26T13:42:34.415Z,20.50
2022-08-26T13:45:04.416Z,17.20
2022-08-26T13:47:32.502Z,17.90
2022-08-26T13:50:00.270Z,22.80
2022-08-26T13:52:30.746Z,18.60
2022-08-26T13:54:59.723Z,20.10
2022-08-26T13:57:29.160Z,18.70
2022-08-26T13:59:58.415Z,18.90
2022-08-26T14:02:26.848Z,18.80
2022-08-26T14:04:55.302Z,20.40
2022-08-26T14:07:23.248Z,20.80
2022-08-26T14:09:51.084Z,16.80
2022-08-26T14:12:18.888Z,17.60
2022-08-26T14:14:47.012Z,17.00
2022-08-26T14:17:19.760Z,22.80
2022-08-26T14:19:49.548Z,20.70
2022-08-26T14:22:19.409Z,17.10
2022-08-26T14:24:47.390Z,24.00
2022-08-26T14:27:15.095Z,21.50
2022-08-26T14:29:42.977Z,21.60
2022-08-26T14:32:18.011Z,20.90
2022-08-26T14:34:49.451Z,21.50
2022-08-26T14:37:18.064Z,19.60
2022-08-26T14:39:46.339Z,22.10
2022-08-26T14:42:17.011Z,17.10
2022-08-26T14:44:48.243Z,21.50
2022-08-26T14:47:15.958Z,16.50
2022-08-26T14:49:43.752Z,16.40
2022-08-26T14:52:11.665Z,17.90
2022-08-26T14:54:39.335Z,17.20
2022-08-26T14:57:09.951Z,20.00
2022-08-26T14:59:39.589Z,20.60
2022-08-26T15:02:09.918Z,19.70
2022-08-26T15:04:41.869Z,20.30
2022-08-26T15:07:09.659Z,19.00
2022-08-26T15:09:40.666Z,18.30
2022-08-26T15:12:09.019Z,20.70
2022-08-26T15:14:36.894Z,20.20
2022-08-26T15:17:04.779Z,22.50
2022-08-26T15:19:32.720Z,17.30
2022-08-26T15:22:00.471Z,18.10
2022-08-26T15:24:28.667Z,18.00
2022-08-26T15:26:57.005Z,15.30
2022-08-26T15:29:24.716Z,13.40
2022-08-26T15:31:55.235Z,13.50
2022-08-26T15:34:26.225Z,12.70
2022-08-26T15:36:54.612Z,14.10
2022-08-26T15:39:22.419Z,14.60
2022-08-26T15:41:50.918Z,19.10
2022-08-26T15:44:18.984Z,16.20
2022-08-26T15:46:48.899Z,15.30
2022-08-26T15:49:18.652Z,15.70
2022-08-26T15:51:49.599Z,25.10
2022-08-26T15:54:19.721Z,32.10
2022-08-26T15:56:49.829Z,29.80
2022-08-26T15:59:18.029Z,30.80
2022-08-26T16:01:46.297Z,34.90
2022-08-26T16:04:14.426Z,38.70
2022-08-26T16:06:42.872Z,34.40
2022-08-26T16:09:11.030Z,37.50
2022-08-26T16:11:38.914Z,37.10
2022-08-26T16:14:07.151Z,33.40
2022-08-26T16:16:39.037Z,35.60
2022-08-26T16:19:07.754Z,33.40
2022-08-26T16:21:35.926Z,31.10
2022-08-26T16:24:05.668Z,30.20
2022-08-26T16:26:35.560Z,27.90
2022-08-26T16:29:07.351Z,28.80
2022-08-26T16:31:37.668Z,31.50
2022-08-26T16:34:06.050Z,27.90
2022-08-26T16:36:35.105Z,33.00
2022-08-26T16:39:04.284Z,25.90
2022-08-26T16:41:33.123Z,29.30
2022-08-26T16:44:01.065Z,30.50
2022-08-26T16:46:29.652Z,37.00
2022-08-26T16:48:58.239Z,40.50
2022-08-26T16:51:27.796Z,36.30
2022-08-26T16:53:56.971Z,41.20
2022-08-26T16:56:33.415Z,51.20
2022-08-26T16:59:03.333Z,48.10
2022-08-26T17:01:31.240Z,52.20
2022-08-26T17:03:59.276Z,46.50
2022-08-26T17:06:27.080Z,45.80
2022-08-26T17:08:54.838Z,46.90
2022-08-26T17:11:22.562Z,45.40
2022-08-26T17:13:50.334Z,43.60
2022-08-26T17:16:18.057Z,44.70
2022-08-26T17:18:45.875Z,41.90
2022-08-26T17:21:14.255Z,38.70
2022-08-26T17:23:43.043Z,38.20
2022-08-26T17:26:11.938Z,37.10
2022-08-26T17:28:40.001Z,40.60
2022-08-26T17:31:10.024Z,38.80
2022-08-26T17:33:38.217Z,38.60
2022-08-26T17:36:08.115Z,39.00
2022-08-26T17:38:37.028Z,39.90
2022-08-26T17:41:08.589Z,34.10
2022-08-26T17:43:37.730Z,34.60
2022-08-26T17:46:07.884Z,33.90
2022-08-26T17:48:37.070Z,34.60
2022-08-26T17:51:09.845Z,34.20
2022-08-26T17:53:37.616Z,33.00
2022-08-26T17:56:08.749Z,31.30
2022-08-26T18:01:05.935Z,29.50
2022-08-26T18:03:34.769Z,27.70
2022-08-26T18:06:03.296Z,27.10
2022-08-26T18:08:31.063Z,26.90
2022-08-26T18:10:58.760Z,27.50
2022-08-26T18:13:26.533Z,30.20
2022-08-26T18:15:54.315Z,28.40
2022-08-26T18:18:22.048Z,27.60
2022-08-26T18:20:54.070Z,30.50
2022-08-26T18:23:31.339Z,28.60
2022-08-26T18:25:59.253Z,26.90
2022-08-26T18:28:27.156Z,25.80
2022-08-26T18:30:55.004Z,30.20
2022-08-26T18:33:25.318Z,29.10
2022-08-26T18:35:53.280Z,34.10
2022-08-26T18:38:20.926Z,32.00
2022-08-26T18:40:50.225Z,33.70
2022-08-26T18:43:17.904Z,36.30
2022-08-26T18:45:45.759Z,30.50
2022-08-26T18:48:14.178Z,33.60
2022-08-26T18:50:45.802Z,31.60
2022-08-26T18:53:15.152Z,37.00
2022-08-26T18:55:43.156Z,36.90
2022-08-26T18:58:11.015Z,38.10
2022-08-26T19:00:39.042Z,40.00
2022-08-26T19:03:08.292Z,40.60
2022-08-26T19:05:47.078Z,38.00
2022-08-26T19:08:14.815Z,45.70
2022-08-26T19:10:42.549Z,43.60
2022-08-26T19:13:10.472Z,40.00
2022-08-26T19:15:39.924Z,42.30
2022-08-26T19:18:09.117Z,38.60
2022-08-26T19:20:43.565Z,38.60
2022-08-26T19:23:30.887Z,40.80
2022-08-26T19:26:02.418Z,38.00
2022-08-26T19:30:57.148Z,35.10
2022-08-26T19:33:24.979Z,42.10
2022-08-26T19:35:53.054Z,37.90
2022-08-26T19:38:20.815Z,41.00
2022-08-26T19:40:48.688Z,43.50
2022-08-26T19:43:16.629Z,41.30
2022-08-26T19:45:44.838Z,40.00
2022-08-26T19:48:12.605Z,43.40
2022-08-26T19:50:41.551Z,41.90
2022-08-26T19:53:09.435Z,40.90
2022-08-26T19:55:37.081Z,40.50
2022-08-26T19:58:04.947Z,43.20
2022-08-26T20:00:33.936Z,41.50
2022-08-26T20:03:02.611Z,42.10
2022-08-26T20:05:30.495Z,48.80
2022-08-26T20:07:58.191Z,41.90
2022-08-26T20:10:26.257Z,47.30
2022-08-26T20:12:54.113Z,46.00
2022-08-26T20:15:23.165Z,47.00
2022-08-26T20:17:51.647Z,47.10
2022-08-26T20:20:37.853Z,52.00
2022-08-26T20:23:05.705Z,53.50
2022-08-26T20:25:34.347Z,47.50
2022-08-26T20:28:02.634Z,50.80
2022-08-26T20:30:30.431Z,51.30
2022-08-26T20:32:58.592Z,55.00
2022-08-26T20:35:26.724Z,53.60
2022-08-26T20:37:54.600Z,49.90
2022-08-26T20:40:22.644Z,54.80
2022-08-26T20:42:50.576Z,50.20
2022-08-26T20:45:18.556Z,59.60
2022-08-26T20:47:46.203Z,57.80
2022-08-26T20:50:13.945Z,53.70
2022-08-26T20:52:41.925Z,59.30
2022-08-26T20:55:10.498Z,55.00
2022-08-26T20:57:38.264Z,55.30
2022-08-26T21:00:08.336Z,58.60
2022-08-26T21:02:36.205Z,59.60
2022-08-26T21:05:05.710Z,61.90
2022-08-26T21:07:33.520Z,57.20
2022-08-26T21:10:01.306Z,67.10
2022-08-26T21:12:29.323Z,70.80
2022-08-26T21:14:57.087Z,71.40
2022-08-26T21:17:24.818Z,72.80
2022-08-26T21:19:52.969Z,68.10
2022-08-26T21:22:20.716Z,71.60
2022-08-26T21:24:48.460Z,75.60
2022-08-26T21:27:21.302Z,79.10
2022-08-26T21:29:54.200Z,68.70
2022-08-26T21:32:21.866Z,79.50
2022-08-26T21:34:49.597Z,77.50
2022-08-26T21:37:17.252Z,84.90
2022-08-26T21:39:44.969Z,80.60
2022-08-26T21:42:12.613Z,80.30
2022-08-26T21:44:40.330Z,79.60
2022-08-26T21:47:08.056Z,81.80
2022-08-26T21:49:35.942Z,86.10
2022-08-26T21:52:04.522Z,91.40
2022-08-26T21:54:32.403Z,89.30
2022-08-26T21:57:00.063Z,90.00
2022-08-26T21:59:27.736Z,90.50
2022-08-26T22:01:55.718Z,92.10
2022-08-26T22:04:23.914Z,90.00
2022-08-26T22:06:54.806Z,96.40
2022-08-26T22:09:24.374Z,97.80
2022-08-26T22:11:53.022Z,92.70
2022-08-26T22:14:24.595Z,99.20
2022-08-26T22:16:55.434Z,104.30
2022-08-26T22:19:23.780Z,95.00
2022-08-26T22:21:53.891Z,96.80
2022-08-26T22:24:23.974Z,104.80
2022-08-26T22:26:52.441Z,105.80
2022-08-26T22:29:20.500Z,101.80
2022-08-26T22:31:48.267Z,105.80
2022-08-26T22:34:16.613Z,116.10
2022-08-26T22:36:46.824Z,103.10
2022-08-26T22:39:16.733Z,103.50
2022-08-26T22:41:47.728Z,105.70
2022-08-26T22:44:17.438Z,106.20
2022-08-26T22:46:46.095Z,106.50
2022-08-26T22:49:15.701Z,103.00
2022-08-26T22:51:43.929Z,108.90
2022-08-26T22:54:12.094Z,107.20
2022-08-26T22:56:40.472Z,100.10
2022-08-26T22:59:08.452Z,106.20
2022-08-26T23:01:38.511Z,109.00
2022-08-26T23:04:07.571Z,94.40
2022-08-26T23:06:36.770Z,88.00
2022-08-26T23:09:05.948Z,89.70
2022-08-26T23:11:34.218Z,86.50
2022-08-26T23:14:02.301Z,92.00
2022-08-26T23:16:39.114Z,76.00
2022-08-26T23:19:08.481Z,74.90
2022-08-26T23:21:36.179Z,74.70
2022-08-26T23:24:05.107Z,71.00
2022-08-26T23:26:33.945Z,75.80
2022-08-26T23:29:04.752Z,69.00
2022-08-26T23:31:33.296Z,66.60
2022-08-26T23:34:19.090Z,62.80
2022-08-26T23:36:47.145Z,60.30
2022-08-26T23:39:15.457Z,65.20
2022-08-26T23:41:43.287Z,54.80
2022-08-26T23:44:11.588Z,57.70
2022-08-26T23:46:39.490Z,51.70
2022-08-26T23:49:07.198Z,53.30
2022-08-26T23:51:49.560Z,54.50
2022-08-26T23:54:18.794Z,53.40
2022-08-26T23:56:46.451Z,58.60
2022-08-26T23:59:14.872Z,57.60
